sensor_id;sensor_type;location;lat;lon;timestamp;pressure;altitude;pressure_sealevel;temperature
15079;BMP180;6932;51.438;5.470;2024-03-29T00:01:20;98699.00;;;16.30
15079;BMP180;6932;51.438;5.470;2024-03-29T00:03:45;98691.00;;;16.30
15079;BMP180;6932;51.438;5.470;2024-03-29T00:06:11;98694.00;;;16.20
15079;BMP180;6932;51.438;5.470;2024-03-29T00:08:37;98691.00;;;16.20
15079;BMP180;6932;51.438;5.470;2024-03-29T00:11:03;98693.00;;;16.20
15079;BMP180;6932;51.438;5.470;2024-03-29T00:13:29;98687.00;;;16.20
15079;BMP180;6932;51.438;5.470;2024-03-29T00:15:55;98701.00;;;16.20
15079;BMP180;6932;51.438;5.470;2024-03-29T00:18:20;98705.00;;;16.20
15079;BMP180;6932;51.438;5.470;2024-03-29T00:20:47;98708.00;;;16.20
15079;BMP180;6932;51.438;5.470;2024-03-29T00:23:12;98717.00;;;16.20
15079;BMP180;6932;51.438;5.470;2024-03-29T00:25:38;98728.00;;;16.20
15079;BMP180;6932;51.438;5.470;2024-03-29T00:28:04;98730.00;;;16.20
15079;BMP180;6932;51.438;5.470;2024-03-29T00:30:30;98730.00;;;16.20
15079;BMP180;6932;51.438;5.470;2024-03-29T00:32:56;98736.00;;;16.20
15079;BMP180;6932;51.438;5.470;2024-03-29T00:35:21;98731.00;;;16.20
15079;BMP180;6932;51.438;5.470;2024-03-29T00:37:49;98725.00;;;16.20
15079;BMP180;6932;51.438;5.470;2024-03-29T00:40:16;98725.00;;;16.10
15079;BMP180;6932;51.438;5.470;2024-03-29T00:42:42;98736.00;;;16.10
15079;BMP180;6932;51.438;5.470;2024-03-29T00:45:08;98743.00;;;16.10
15079;BMP180;6932;51.438;5.470;2024-03-29T00:47:34;98750.00;;;16.10
15079;BMP180;6932;51.438;5.470;2024-03-29T00:50:00;98744.00;;;16.10
15079;BMP180;6932;51.438;5.470;2024-03-29T00:52:26;98753.00;;;16.00
15079;BMP180;6932;51.438;5.470;2024-03-29T00:54:51;98743.00;;;16.00
15079;BMP180;6932;51.438;5.470;2024-03-29T00:57:18;98746.00;;;16.00
15079;BMP180;6932;51.438;5.470;2024-03-29T00:59:44;98749.00;;;16.00
15079;BMP180;6932;51.438;5.470;2024-03-29T01:02:10;98746.00;;;16.00
15079;BMP180;6932;51.438;5.470;2024-03-29T01:04:36;98758.00;;;16.00
15079;BMP180;6932;51.438;5.470;2024-03-29T01:07:03;98748.00;;;15.90
15079;BMP180;6932;51.438;5.470;2024-03-29T01:09:29;98757.00;;;15.90
15079;BMP180;6932;51.438;5.470;2024-03-29T01:11:55;98754.00;;;15.90
15079;BMP180;6932;51.438;5.470;2024-03-29T01:14:21;98752.00;;;15.90
15079;BMP180;6932;51.438;5.470;2024-03-29T01:16:47;98738.00;;;15.90
15079;BMP180;6932;51.438;5.470;2024-03-29T01:19:13;98738.00;;;15.80
15079;BMP180;6932;51.438;5.470;2024-03-29T01:21:38;98736.00;;;15.80
15079;BMP180;6932;51.438;5.470;2024-03-29T01:24:04;98728.00;;;15.80
15079;BMP180;6932;51.438;5.470;2024-03-29T01:26:30;98726.00;;;15.80
15079;BMP180;6932;51.438;5.470;2024-03-29T01:28:56;98719.00;;;15.80
15079;BMP180;6932;51.438;5.470;2024-03-29T01:31:23;98717.00;;;15.80
15079;BMP180;6932;51.438;5.470;2024-03-29T01:33:50;98712.00;;;15.70
15079;BMP180;6932;51.438;5.470;2024-03-29T01:36:16;98705.00;;;15.70
15079;BMP180;6932;51.438;5.470;2024-03-29T01:38:41;98703.00;;;15.70
15079;BMP180;6932;51.438;5.470;2024-03-29T01:41:08;98696.00;;;15.70
15079;BMP180;6932;51.438;5.470;2024-03-29T01:43:34;98693.00;;;15.70
15079;BMP180;6932;51.438;5.470;2024-03-29T01:46:00;98689.00;;;15.70
15079;BMP180;6932;51.438;5.470;2024-03-29T01:48:27;98668.00;;;15.70
15079;BMP180;6932;51.438;5.470;2024-03-29T01:50:57;98669.00;;;15.70
15079;BMP180;6932;51.438;5.470;2024-03-29T01:53:24;98692.00;;;15.70
15079;BMP180;6932;51.438;5.470;2024-03-29T01:55:51;98696.00;;;15.70
15079;BMP180;6932;51.438;5.470;2024-03-29T01:58:20;98680.00;;;15.70
15079;BMP180;6932;51.438;5.470;2024-03-29T02:00:58;98679.00;;;15.70
15079;BMP180;6932;51.438;5.470;2024-03-29T02:03:23;98687.00;;;15.80
15079;BMP180;6932;51.438;5.470;2024-03-29T02:05:50;98668.00;;;15.80
15079;BMP180;6932;51.438;5.470;2024-03-29T02:08:16;98679.00;;;15.80
15079;BMP180;6932;51.438;5.470;2024-03-29T02:10:47;98695.00;;;15.80
15079;BMP180;6932;51.438;5.470;2024-03-29T02:13:13;98699.00;;;15.80
15079;BMP180;6932;51.438;5.470;2024-03-29T02:15:40;98696.00;;;15.80
15079;BMP180;6932;51.438;5.470;2024-03-29T02:18:07;98709.00;;;15.90
15079;BMP180;6932;51.438;5.470;2024-03-29T02:20:34;98704.00;;;15.90
15079;BMP180;6932;51.438;5.470;2024-03-29T02:23:16;98710.00;;;15.80
15079;BMP180;6932;51.438;5.470;2024-03-29T02:25:43;98710.00;;;15.90
15079;BMP180;6932;51.438;5.470;2024-03-29T02:28:09;98707.00;;;15.90
15079;BMP180;6932;51.438;5.470;2024-03-29T02:30:35;98716.00;;;15.90
15079;BMP180;6932;51.438;5.470;2024-03-29T02:33:01;98707.00;;;16.00
15079;BMP180;6932;51.438;5.470;2024-03-29T02:35:28;98710.00;;;16.00
15079;BMP180;6932;51.438;5.470;2024-03-29T02:37:54;98716.00;;;16.00
15079;BMP180;6932;51.438;5.470;2024-03-29T02:40:20;98714.00;;;16.00
15079;BMP180;6932;51.438;5.470;2024-03-29T02:42:48;98717.00;;;16.10
15079;BMP180;6932;51.438;5.470;2024-03-29T02:45:15;98720.00;;;16.10
15079;BMP180;6932;51.438;5.470;2024-03-29T02:47:41;98729.00;;;16.20
15079;BMP180;6932;51.438;5.470;2024-03-29T02:50:10;98722.00;;;16.20
15079;BMP180;6932;51.438;5.470;2024-03-29T02:52:37;98716.00;;;16.20
15079;BMP180;6932;51.438;5.470;2024-03-29T02:55:03;98716.00;;;16.30
15079;BMP180;6932;51.438;5.470;2024-03-29T02:57:28;98729.00;;;16.30
15079;BMP180;6932;51.438;5.470;2024-03-29T02:59:54;98720.00;;;16.30
15079;BMP180;6932;51.438;5.470;2024-03-29T03:02:20;98744.00;;;16.40
15079;BMP180;6932;51.438;5.470;2024-03-29T03:04:46;98747.00;;;16.40
15079;BMP180;6932;51.438;5.470;2024-03-29T03:07:11;98743.00;;;16.30
15079;BMP180;6932;51.438;5.470;2024-03-29T03:09:56;98743.00;;;16.30
15079;BMP180;6932;51.438;5.470;2024-03-29T03:12:40;98752.00;;;16.30
15079;BMP180;6932;51.438;5.470;2024-03-29T03:15:06;98759.00;;;16.30
15079;BMP180;6932;51.438;5.470;2024-03-29T03:17:32;98753.00;;;16.30
15079;BMP180;6932;51.438;5.470;2024-03-29T03:19:58;98756.00;;;16.30
15079;BMP180;6932;51.438;5.470;2024-03-29T03:22:24;98762.00;;;16.30
15079;BMP180;6932;51.438;5.470;2024-03-29T03:24:50;98758.00;;;16.30
15079;BMP180;6932;51.438;5.470;2024-03-29T03:27:16;98752.00;;;16.30
15079;BMP180;6932;51.438;5.470;2024-03-29T03:29:41;98746.00;;;16.30
15079;BMP180;6932;51.438;5.470;2024-03-29T03:32:07;98738.00;;;16.30
15079;BMP180;6932;51.438;5.470;2024-03-29T03:34:33;98738.00;;;16.30
15079;BMP180;6932;51.438;5.470;2024-03-29T03:36:59;98739.00;;;16.30
15079;BMP180;6932;51.438;5.470;2024-03-29T03:39:25;98744.00;;;16.20
15079;BMP180;6932;51.438;5.470;2024-03-29T03:41:51;98743.00;;;16.30
15079;BMP180;6932;51.438;5.470;2024-03-29T03:44:17;98740.00;;;16.20
15079;BMP180;6932;51.438;5.470;2024-03-29T03:46:43;98728.00;;;16.20
15079;BMP180;6932;51.438;5.470;2024-03-29T03:49:09;98738.00;;;16.20
15079;BMP180;6932;51.438;5.470;2024-03-29T03:51:35;98737.00;;;16.20
15079;BMP180;6932;51.438;5.470;2024-03-29T03:54:00;98733.00;;;16.20
15079;BMP180;6932;51.438;5.470;2024-03-29T03:56:26;98761.00;;;16.20
15079;BMP180;6932;51.438;5.470;2024-03-29T03:58:52;98754.00;;;16.20
15079;BMP180;6932;51.438;5.470;2024-03-29T04:01:18;98750.00;;;16.20
15079;BMP180;6932;51.438;5.470;2024-03-29T04:03:44;98773.00;;;16.20
15079;BMP180;6932;51.438;5.470;2024-03-29T04:06:09;98764.00;;;16.20
15079;BMP180;6932;51.438;5.470;2024-03-29T04:08:35;98776.00;;;16.10
15079;BMP180;6932;51.438;5.470;2024-03-29T04:11:04;98784.00;;;16.10
15079;BMP180;6932;51.438;5.470;2024-03-29T04:13:30;98780.00;;;16.00
15079;BMP180;6932;51.438;5.470;2024-03-29T04:16:06;98800.00;;;15.90
15079;BMP180;6932;51.438;5.470;2024-03-29T04:18:33;98807.00;;;15.90
15079;BMP180;6932;51.438;5.470;2024-03-29T04:21:00;98803.00;;;15.80
15079;BMP180;6932;51.438;5.470;2024-03-29T04:23:27;98781.00;;;15.70
15079;BMP180;6932;51.438;5.470;2024-03-29T04:25:57;98793.00;;;15.60
15079;BMP180;6932;51.438;5.470;2024-03-29T04:28:25;98776.00;;;15.60
15079;BMP180;6932;51.438;5.470;2024-03-29T04:30:56;98766.00;;;15.50
15079;BMP180;6932;51.438;5.470;2024-03-29T04:33:22;98777.00;;;15.40
15079;BMP180;6932;51.438;5.470;2024-03-29T04:35:58;98781.00;;;15.30
15079;BMP180;6932;51.438;5.470;2024-03-29T04:38:24;98793.00;;;15.30
15079;BMP180;6932;51.438;5.470;2024-03-29T04:40:52;98788.00;;;15.30
15079;BMP180;6932;51.438;5.470;2024-03-29T04:43:18;98779.00;;;15.20
15079;BMP180;6932;51.438;5.470;2024-03-29T04:45:44;98771.00;;;15.20
15079;BMP180;6932;51.438;5.470;2024-03-29T04:48:12;98775.00;;;15.10
15079;BMP180;6932;51.438;5.470;2024-03-29T04:50:37;98768.00;;;15.10
15079;BMP180;6932;51.438;5.470;2024-03-29T04:53:03;98787.00;;;15.00
15079;BMP180;6932;51.438;5.470;2024-03-29T04:55:30;98791.00;;;15.00
15079;BMP180;6932;51.438;5.470;2024-03-29T04:57:55;98792.00;;;15.00
15079;BMP180;6932;51.438;5.470;2024-03-29T05:00:21;98781.00;;;14.90
15079;BMP180;6932;51.438;5.470;2024-03-29T05:02:47;98767.00;;;14.90
15079;BMP180;6932;51.438;5.470;2024-03-29T05:05:13;98760.00;;;14.90
15079;BMP180;6932;51.438;5.470;2024-03-29T05:07:39;98755.00;;;14.80
15079;BMP180;6932;51.438;5.470;2024-03-29T05:10:05;98767.00;;;14.80
15079;BMP180;6932;51.438;5.470;2024-03-29T05:12:35;98761.00;;;14.80
15079;BMP180;6932;51.438;5.470;2024-03-29T05:15:01;98756.00;;;14.80
15079;BMP180;6932;51.438;5.470;2024-03-29T05:17:27;98763.00;;;14.70
15079;BMP180;6932;51.438;5.470;2024-03-29T05:19:54;98762.00;;;14.70
15079;BMP180;6932;51.438;5.470;2024-03-29T05:22:20;98762.00;;;14.70
15079;BMP180;6932;51.438;5.470;2024-03-29T05:24:45;98763.00;;;14.70
15079;BMP180;6932;51.438;5.470;2024-03-29T05:27:12;98745.00;;;14.70
15079;BMP180;6932;51.438;5.470;2024-03-29T05:29:38;98752.00;;;14.60
15079;BMP180;6932;51.438;5.470;2024-03-29T05:32:06;98749.00;;;14.60
15079;BMP180;6932;51.438;5.470;2024-03-29T05:34:32;98743.00;;;14.60
15079;BMP180;6932;51.438;5.470;2024-03-29T05:36:58;98744.00;;;14.60
15079;BMP180;6932;51.438;5.470;2024-03-29T05:39:24;98745.00;;;14.60
15079;BMP180;6932;51.438;5.470;2024-03-29T05:41:49;98746.00;;;14.60
15079;BMP180;6932;51.438;5.470;2024-03-29T05:44:15;98744.00;;;14.60
15079;BMP180;6932;51.438;5.470;2024-03-29T05:46:43;98746.00;;;14.50
15079;BMP180;6932;51.438;5.470;2024-03-29T05:49:08;98765.00;;;14.50
15079;BMP180;6932;51.438;5.470;2024-03-29T05:51:34;98768.00;;;14.50
15079;BMP180;6932;51.438;5.470;2024-03-29T05:54:00;98780.00;;;14.50
15079;BMP180;6932;51.438;5.470;2024-03-29T05:56:29;98783.00;;;14.50
15079;BMP180;6932;51.438;5.470;2024-03-29T05:58:55;98772.00;;;14.50
15079;BMP180;6932;51.438;5.470;2024-03-29T06:01:21;98776.00;;;14.50
15079;BMP180;6932;51.438;5.470;2024-03-29T06:03:49;98767.00;;;14.50
15079;BMP180;6932;51.438;5.470;2024-03-29T06:06:17;98780.00;;;14.50
15079;BMP180;6932;51.438;5.470;2024-03-29T06:08:46;98793.00;;;14.40
15079;BMP180;6932;51.438;5.470;2024-03-29T06:11:12;98804.00;;;14.50
15079;BMP180;6932;51.438;5.470;2024-03-29T06:13:37;98786.00;;;14.50
15079;BMP180;6932;51.438;5.470;2024-03-29T06:16:24;98793.00;;;14.50
15079;BMP180;6932;51.438;5.470;2024-03-29T06:19:08;98793.00;;;14.50
15079;BMP180;6932;51.438;5.470;2024-03-29T06:21:33;98788.00;;;14.50
15079;BMP180;6932;51.438;5.470;2024-03-29T06:24:10;98776.00;;;14.40
15079;BMP180;6932;51.438;5.470;2024-03-29T06:26:39;98784.00;;;14.50
15079;BMP180;6932;51.438;5.470;2024-03-29T06:29:06;98787.00;;;14.50
15079;BMP180;6932;51.438;5.470;2024-03-29T06:31:31;98787.00;;;14.50
15079;BMP180;6932;51.438;5.470;2024-03-29T06:33:57;98803.00;;;14.50
15079;BMP180;6932;51.438;5.470;2024-03-29T06:36:24;98798.00;;;14.50
15079;BMP180;6932;51.438;5.470;2024-03-29T06:38:51;98796.00;;;14.50
15079;BMP180;6932;51.438;5.470;2024-03-29T06:41:17;98805.00;;;14.50
15079;BMP180;6932;51.438;5.470;2024-03-29T06:43:43;98800.00;;;14.50
15079;BMP180;6932;51.438;5.470;2024-03-29T06:46:11;98787.00;;;14.50
15079;BMP180;6932;51.438;5.470;2024-03-29T06:48:37;98778.00;;;14.50
15079;BMP180;6932;51.438;5.470;2024-03-29T06:51:03;98772.00;;;14.50
15079;BMP180;6932;51.438;5.470;2024-03-29T06:53:29;98773.00;;;14.50
15079;BMP180;6932;51.438;5.470;2024-03-29T06:55:56;98774.00;;;14.50
15079;BMP180;6932;51.438;5.470;2024-03-29T06:58:25;98778.00;;;14.50
15079;BMP180;6932;51.438;5.470;2024-03-29T07:00:51;98773.00;;;14.50
15079;BMP180;6932;51.438;5.470;2024-03-29T07:03:18;98775.00;;;14.60
15079;BMP180;6932;51.438;5.470;2024-03-29T07:05:45;98766.00;;;14.60
15079;BMP180;6932;51.438;5.470;2024-03-29T07:08:11;98769.00;;;14.60
15079;BMP180;6932;51.438;5.470;2024-03-29T07:10:37;98786.00;;;14.60
15079;BMP180;6932;51.438;5.470;2024-03-29T07:13:03;98786.00;;;14.60
15079;BMP180;6932;51.438;5.470;2024-03-29T07:15:28;98785.00;;;14.60
15079;BMP180;6932;51.438;5.470;2024-03-29T07:17:54;98788.00;;;14.60
15079;BMP180;6932;51.438;5.470;2024-03-29T07:20:20;98799.00;;;14.60
15079;BMP180;6932;51.438;5.470;2024-03-29T07:22:46;98792.00;;;14.60
15079;BMP180;6932;51.438;5.470;2024-03-29T07:25:11;98803.00;;;14.70
15079;BMP180;6932;51.438;5.470;2024-03-29T07:27:37;98809.00;;;14.70
15079;BMP180;6932;51.438;5.470;2024-03-29T07:30:04;98812.00;;;14.80
15079;BMP180;6932;51.438;5.470;2024-03-29T07:32:31;98816.00;;;14.80
15079;BMP180;6932;51.438;5.470;2024-03-29T07:34:57;98813.00;;;14.90
15079;BMP180;6932;51.438;5.470;2024-03-29T07:37:24;98799.00;;;15.00
15079;BMP180;6932;51.438;5.470;2024-03-29T07:39:50;98802.00;;;15.10
15079;BMP180;6932;51.438;5.470;2024-03-29T07:42:16;98820.00;;;15.10
15079;BMP180;6932;51.438;5.470;2024-03-29T07:44:42;98810.00;;;15.20
15079;BMP180;6932;51.438;5.470;2024-03-29T07:47:08;98812.00;;;15.20
15079;BMP180;6932;51.438;5.470;2024-03-29T07:49:34;98811.00;;;15.20
15079;BMP180;6932;51.438;5.470;2024-03-29T07:52:02;98800.00;;;15.20
15079;BMP180;6932;51.438;5.470;2024-03-29T07:54:34;98803.00;;;15.20
15079;BMP180;6932;51.438;5.470;2024-03-29T07:56:59;98810.00;;;15.30
15079;BMP180;6932;51.438;5.470;2024-03-29T07:59:27;98798.00;;;15.30
15079;BMP180;6932;51.438;5.470;2024-03-29T08:01:53;98791.00;;;15.30
15079;BMP180;6932;51.438;5.470;2024-03-29T08:04:20;98780.00;;;15.30
15079;BMP180;6932;51.438;5.470;2024-03-29T08:06:46;98786.00;;;15.30
15079;BMP180;6932;51.438;5.470;2024-03-29T08:09:12;98783.00;;;15.30
15079;BMP180;6932;51.438;5.470;2024-03-29T08:11:40;98782.00;;;15.40
15079;BMP180;6932;51.438;5.470;2024-03-29T08:14:05;98800.00;;;15.40
15079;BMP180;6932;51.438;5.470;2024-03-29T08:16:32;98792.00;;;15.40
15079;BMP180;6932;51.438;5.470;2024-03-29T08:18:57;98785.00;;;15.40
15079;BMP180;6932;51.438;5.470;2024-03-29T08:21:24;98779.00;;;15.40
15079;BMP180;6932;51.438;5.470;2024-03-29T08:23:53;98799.00;;;15.40
15079;BMP180;6932;51.438;5.470;2024-03-29T08:26:21;98805.00;;;15.50
15079;BMP180;6932;51.438;5.470;2024-03-29T08:28:47;98823.00;;;15.50
15079;BMP180;6932;51.438;5.470;2024-03-29T08:31:12;98811.00;;;15.50
15079;BMP180;6932;51.438;5.470;2024-03-29T08:33:38;98816.00;;;15.60
15079;BMP180;6932;51.438;5.470;2024-03-29T08:36:06;98812.00;;;15.60
15079;BMP180;6932;51.438;5.470;2024-03-29T08:38:32;98809.00;;;15.60
15079;BMP180;6932;51.438;5.470;2024-03-29T08:40:57;98805.00;;;15.60
15079;BMP180;6932;51.438;5.470;2024-03-29T08:43:23;98797.00;;;15.70
15079;BMP180;6932;51.438;5.470;2024-03-29T08:45:49;98812.00;;;15.70
15079;BMP180;6932;51.438;5.470;2024-03-29T08:48:15;98819.00;;;15.70
15079;BMP180;6932;51.438;5.470;2024-03-29T08:50:41;98845.00;;;15.80
15079;BMP180;6932;51.438;5.470;2024-03-29T08:53:07;98834.00;;;15.80
15079;BMP180;6932;51.438;5.470;2024-03-29T08:55:34;98848.00;;;15.80
15079;BMP180;6932;51.438;5.470;2024-03-29T08:58:02;98828.00;;;15.90
15079;BMP180;6932;51.438;5.470;2024-03-29T09:00:30;98835.00;;;15.90
15079;BMP180;6932;51.438;5.470;2024-03-29T09:02:56;98831.00;;;16.00
15079;BMP180;6932;51.438;5.470;2024-03-29T09:05:22;98828.00;;;16.00
15079;BMP180;6932;51.438;5.470;2024-03-29T09:07:50;98826.00;;;16.10
15079;BMP180;6932;51.438;5.470;2024-03-29T09:10:16;98835.00;;;16.10
15079;BMP180;6932;51.438;5.470;2024-03-29T09:12:42;98841.00;;;16.20
15079;BMP180;6932;51.438;5.470;2024-03-29T09:15:08;98657.00;;;16.00
15079;BMP180;6932;51.438;5.470;2024-03-29T09:17:42;98671.00;;;15.70
15079;BMP180;6932;51.438;5.470;2024-03-29T09:20:09;98668.00;;;15.50
15079;BMP180;6932;51.438;5.470;2024-03-29T09:22:35;98671.00;;;15.40
15079;BMP180;6932;51.438;5.470;2024-03-29T09:25:01;98669.00;;;15.30
15079;BMP180;6932;51.438;5.470;2024-03-29T09:27:27;98666.00;;;15.20
15079;BMP180;6932;51.438;5.470;2024-03-29T09:29:55;98658.00;;;15.10
15079;BMP180;6932;51.438;5.470;2024-03-29T09:32:23;98676.00;;;15.10
15079;BMP180;6932;51.438;5.470;2024-03-29T09:34:49;98863.00;;;15.30
15079;BMP180;6932;51.438;5.470;2024-03-29T09:37:15;98884.00;;;15.60
15079;BMP180;6932;51.438;5.470;2024-03-29T09:39:41;98878.00;;;15.90
15079;BMP180;6932;51.438;5.470;2024-03-29T09:42:10;98883.00;;;16.10
15079;BMP180;6932;51.438;5.470;2024-03-29T09:44:39;98884.00;;;16.40
15079;BMP180;6932;51.438;5.470;2024-03-29T09:47:06;98880.00;;;16.70
15079;BMP180;6932;51.438;5.470;2024-03-29T09:49:33;98890.00;;;16.90
15079;BMP180;6932;51.438;5.470;2024-03-29T09:52:00;98884.00;;;17.10
15079;BMP180;6932;51.438;5.470;2024-03-29T09:54:29;98884.00;;;17.40
15079;BMP180;6932;51.438;5.470;2024-03-29T09:56:58;98896.00;;;17.60
15079;BMP180;6932;51.438;5.470;2024-03-29T09:59:24;98898.00;;;17.70
15079;BMP180;6932;51.438;5.470;2024-03-29T10:01:54;98906.00;;;17.90
15079;BMP180;6932;51.438;5.470;2024-03-29T10:04:23;98902.00;;;17.90
15079;BMP180;6932;51.438;5.470;2024-03-29T10:06:51;98897.00;;;18.00
15079;BMP180;6932;51.438;5.470;2024-03-29T10:09:21;98881.00;;;18.00
15079;BMP180;6932;51.438;5.470;2024-03-29T10:11:48;98877.00;;;18.10
15079;BMP180;6932;51.438;5.470;2024-03-29T10:14:14;98876.00;;;18.20
15079;BMP180;6932;51.438;5.470;2024-03-29T10:16:40;98872.00;;;18.20
15079;BMP180;6932;51.438;5.470;2024-03-29T10:19:07;98869.00;;;18.30
15079;BMP180;6932;51.438;5.470;2024-03-29T10:21:33;98872.00;;;18.30
15079;BMP180;6932;51.438;5.470;2024-03-29T10:24:15;98875.00;;;18.30
15079;BMP180;6932;51.438;5.470;2024-03-29T10:26:43;98870.00;;;18.40
15079;BMP180;6932;51.438;5.470;2024-03-29T10:29:09;98859.00;;;18.50
15079;BMP180;6932;51.438;5.470;2024-03-29T10:31:36;98893.00;;;18.50
15079;BMP180;6932;51.438;5.470;2024-03-29T10:34:05;98883.00;;;18.60
15079;BMP180;6932;51.438;5.470;2024-03-29T10:36:34;98881.00;;;18.70
15079;BMP180;6932;51.438;5.470;2024-03-29T10:39:11;98879.00;;;18.70
15079;BMP180;6932;51.438;5.470;2024-03-29T10:41:42;98873.00;;;18.70
15079;BMP180;6932;51.438;5.470;2024-03-29T10:44:12;98882.00;;;18.90
15079;BMP180;6932;51.438;5.470;2024-03-29T10:46:40;98901.00;;;18.90
15079;BMP180;6932;51.438;5.470;2024-03-29T10:49:09;98891.00;;;19.00
15079;BMP180;6932;51.438;5.470;2024-03-29T10:51:38;98906.00;;;19.00
15079;BMP180;6932;51.438;5.470;2024-03-29T10:54:07;98913.00;;;19.00
15079;BMP180;6932;51.438;5.470;2024-03-29T10:56:36;98933.00;;;18.90
15079;BMP180;6932;51.438;5.470;2024-03-29T10:59:12;98925.00;;;18.90
15079;BMP180;6932;51.438;5.470;2024-03-29T11:01:44;98930.00;;;18.90
15079;BMP180;6932;51.438;5.470;2024-03-29T11:04:22;98923.00;;;18.80
15079;BMP180;6932;51.438;5.470;2024-03-29T11:06:54;98920.00;;;18.80
15079;BMP180;6932;51.438;5.470;2024-03-29T11:09:28;98927.00;;;18.90
15079;BMP180;6932;51.438;5.470;2024-03-29T11:11:58;98905.00;;;18.90
15079;BMP180;6932;51.438;5.470;2024-03-29T11:14:42;98886.00;;;18.90
15079;BMP180;6932;51.438;5.470;2024-03-29T11:17:09;98877.00;;;19.00
15079;BMP180;6932;51.438;5.470;2024-03-29T11:19:38;98879.00;;;19.00
15079;BMP180;6932;51.438;5.470;2024-03-29T11:22:05;98897.00;;;19.00
15079;BMP180;6932;51.438;5.470;2024-03-29T11:24:32;98888.00;;;19.10
15079;BMP180;6932;51.438;5.470;2024-03-29T11:27:10;98904.00;;;19.10
15079;BMP180;6932;51.438;5.470;2024-03-29T11:29:36;98902.00;;;19.30
15079;BMP180;6932;51.438;5.470;2024-03-29T11:32:06;98905.00;;;19.40
15079;BMP180;6932;51.438;5.470;2024-03-29T11:34:32;98911.00;;;19.40
15079;BMP180;6932;51.438;5.470;2024-03-29T11:37:14;98917.00;;;19.40
15079;BMP180;6932;51.438;5.470;2024-03-29T11:39:47;98913.00;;;19.40
15079;BMP180;6932;51.438;5.470;2024-03-29T11:42:14;98928.00;;;19.50
15079;BMP180;6932;51.438;5.470;2024-03-29T11:44:39;98907.00;;;19.60
15079;BMP180;6932;51.438;5.470;2024-03-29T11:47:07;98917.00;;;19.70
15079;BMP180;6932;51.438;5.470;2024-03-29T11:49:35;98906.00;;;19.80
15079;BMP180;6932;51.438;5.470;2024-03-29T11:52:06;98920.00;;;19.80
15079;BMP180;6932;51.438;5.470;2024-03-29T11:54:39;98935.00;;;19.90
15079;BMP180;6932;51.438;5.470;2024-03-29T11:57:05;98933.00;;;19.90
15079;BMP180;6932;51.438;5.470;2024-03-29T11:59:30;98922.00;;;20.00
15079;BMP180;6932;51.438;5.470;2024-03-29T12:01:57;98920.00;;;20.00
15079;BMP180;6932;51.438;5.470;2024-03-29T12:04:22;98939.00;;;20.10
15079;BMP180;6932;51.438;5.470;2024-03-29T12:06:49;98932.00;;;20.10
15079;BMP180;6932;51.438;5.470;2024-03-29T12:09:15;98937.00;;;20.10
15079;BMP180;6932;51.438;5.470;2024-03-29T12:11:43;98944.00;;;20.10
15079;BMP180;6932;51.438;5.470;2024-03-29T12:14:15;98933.00;;;20.10
15079;BMP180;6932;51.438;5.470;2024-03-29T12:16:45;98931.00;;;20.10
15079;BMP180;6932;51.438;5.470;2024-03-29T12:19:23;98937.00;;;20.10
15079;BMP180;6932;51.438;5.470;2024-03-29T12:21:50;98947.00;;;20.20
15079;BMP180;6932;51.438;5.470;2024-03-29T12:24:16;98945.00;;;20.30
15079;BMP180;6932;51.438;5.470;2024-03-29T12:26:42;98939.00;;;20.40
15079;BMP180;6932;51.438;5.470;2024-03-29T12:29:08;98941.00;;;20.40
15079;BMP180;6932;51.438;5.470;2024-03-29T12:31:34;98939.00;;;20.50
15079;BMP180;6932;51.438;5.470;2024-03-29T12:34:00;98944.00;;;20.50
15079;BMP180;6932;51.438;5.470;2024-03-29T12:36:25;98947.00;;;20.50
15079;BMP180;6932;51.438;5.470;2024-03-29T12:38:55;98938.00;;;20.40
15079;BMP180;6932;51.438;5.470;2024-03-29T12:41:24;98955.00;;;20.40
15079;BMP180;6932;51.438;5.470;2024-03-29T12:43:51;98947.00;;;20.40
15079;BMP180;6932;51.438;5.470;2024-03-29T12:46:18;98948.00;;;20.40
15079;BMP180;6932;51.438;5.470;2024-03-29T12:48:43;98942.00;;;20.40
15079;BMP180;6932;51.438;5.470;2024-03-29T12:51:10;98934.00;;;20.50
15079;BMP180;6932;51.438;5.470;2024-03-29T12:53:39;98928.00;;;20.50
15079;BMP180;6932;51.438;5.470;2024-03-29T12:56:05;98930.00;;;20.50
15079;BMP180;6932;51.438;5.470;2024-03-29T12:58:31;98933.00;;;20.50
15079;BMP180;6932;51.438;5.470;2024-03-29T13:00:57;98941.00;;;20.50
15079;BMP180;6932;51.438;5.470;2024-03-29T13:03:23;98942.00;;;20.50
15079;BMP180;6932;51.438;5.470;2024-03-29T13:05:49;98935.00;;;20.50
15079;BMP180;6932;51.438;5.470;2024-03-29T13:08:15;98937.00;;;20.50
15079;BMP180;6932;51.438;5.470;2024-03-29T13:10:42;98947.00;;;20.50
15079;BMP180;6932;51.438;5.470;2024-03-29T13:13:09;98943.00;;;20.50
15079;BMP180;6932;51.438;5.470;2024-03-29T13:15:37;98934.00;;;20.50
15079;BMP180;6932;51.438;5.470;2024-03-29T13:18:05;98961.00;;;20.50
15079;BMP180;6932;51.438;5.470;2024-03-29T13:20:32;98959.00;;;20.50
15079;BMP180;6932;51.438;5.470;2024-03-29T13:23:00;98973.00;;;20.50
15079;BMP180;6932;51.438;5.470;2024-03-29T13:25:26;98966.00;;;20.60
15079;BMP180;6932;51.438;5.470;2024-03-29T13:27:54;98966.00;;;20.60
15079;BMP180;6932;51.438;5.470;2024-03-29T13:30:25;98957.00;;;20.60
15079;BMP180;6932;51.438;5.470;2024-03-29T13:32:52;98952.00;;;20.60
15079;BMP180;6932;51.438;5.470;2024-03-29T13:35:19;98950.00;;;20.60
15079;BMP180;6932;51.438;5.470;2024-03-29T13:37:49;98948.00;;;20.60
15079;BMP180;6932;51.438;5.470;2024-03-29T13:40:16;98954.00;;;20.60
15079;BMP180;6932;51.438;5.470;2024-03-29T13:42:43;98949.00;;;20.60
15079;BMP180;6932;51.438;5.470;2024-03-29T13:45:10;98963.00;;;20.60
15079;BMP180;6932;51.438;5.470;2024-03-29T13:47:41;98973.00;;;20.60
15079;BMP180;6932;51.438;5.470;2024-03-29T13:50:09;98977.00;;;20.60
15079;BMP180;6932;51.438;5.470;2024-03-29T13:52:35;98972.00;;;20.60
15079;BMP180;6932;51.438;5.470;2024-03-29T13:55:02;98975.00;;;20.60
15079;BMP180;6932;51.438;5.470;2024-03-29T13:57:29;98968.00;;;20.60
15079;BMP180;6932;51.438;5.470;2024-03-29T13:59:55;98959.00;;;20.50
15079;BMP180;6932;51.438;5.470;2024-03-29T14:02:21;98960.00;;;20.50
15079;BMP180;6932;51.438;5.470;2024-03-29T14:04:48;98953.00;;;20.50
15079;BMP180;6932;51.438;5.470;2024-03-29T14:07:15;98962.00;;;20.50
15079;BMP180;6932;51.438;5.470;2024-03-29T14:09:44;98986.00;;;20.50
15079;BMP180;6932;51.438;5.470;2024-03-29T14:12:12;98984.00;;;20.50
15079;BMP180;6932;51.438;5.470;2024-03-29T14:14:39;98980.00;;;20.60
15079;BMP180;6932;51.438;5.470;2024-03-29T14:17:05;98979.00;;;20.60
15079;BMP180;6932;51.438;5.470;2024-03-29T14:19:33;98984.00;;;20.70
15079;BMP180;6932;51.438;5.470;2024-03-29T14:22:03;98970.00;;;20.70